createdAt,value
2022-10-19T00:02:00.207Z,101657.94
2022-10-19T00:04:26.743Z,101659.97
2022-10-19T00:06:53.305Z,101655.09
2022-10-19T00:09:20.188Z,101652.16
2022-10-19T00:11:49.724Z,101651.69
2022-10-19T00:14:20.859Z,101656.91
2022-10-19T00:16:49.174Z,101639.09
2022-10-19T00:19:19.857Z,101647.34
2022-10-19T00:21:46.909Z,101655.19
2022-10-19T00:24:13.696Z,101641.97
2022-10-19T00:26:40.209Z,101651.38
2022-10-19T00:29:07.221Z,101641.44
2022-10-19T00:31:33.808Z,101642.19
2022-10-19T00:34:00.778Z,101645.03
2022-10-19T00:36:31.369Z,101644.88
2022-10-19T00:38:58.332Z,101638.41
2022-10-19T00:41:28.279Z,101640.09
2022-10-19T00:44:28.100Z,101640.09
2022-10-19T00:46:58.730Z,101637.44
2022-10-19T00:49:29.729Z,101641.69
2022-10-19T00:52:01.554Z,101648.09
2022-10-19T00:54:28.334Z,101648.94
2022-10-19T00:56:58.207Z,101640.34
2022-10-19T00:59:27.130Z,101638.78
2022-10-19T01:01:54.807Z,101638.88
2022-10-19T01:04:25.617Z,101635.22
2022-10-19T01:06:53.533Z,101635.03
2022-10-19T01:09:20.153Z,101631.16
2022-10-19T01:11:49.704Z,101632.41
2022-10-19T01:14:47.511Z,101632.03
2022-10-19T01:17:13.968Z,101630.72
2022-10-19T01:20:09.747Z,101633.28
2022-10-19T01:23:11.826Z,101629.84
2022-10-19T01:26:03.166Z,101633.22
2022-10-19T01:29:10.349Z,101626.50
2022-10-19T01:31:58.054Z,101622.34
2022-10-19T01:34:32.713Z,101621.28
2022-10-19T01:37:31.988Z,101627.19
2022-10-19T01:40:15.368Z,101619.09
2022-10-19T01:42:49.744Z,101620.22
2022-10-19T01:45:18.665Z,101617.91
2022-10-19T01:47:54.708Z,101624.13
2022-10-19T01:50:31.464Z,101613.75
2022-10-19T01:52:59.257Z,101620.56
2022-10-19T01:55:27.321Z,101619.44
2022-10-19T01:57:59.176Z,101612.13
2022-10-19T02:00:27.087Z,101615.13
2022-10-19T02:02:56.016Z,101611.25
2022-10-19T02:05:28.319Z,101620.50
2022-10-19T02:07:59.376Z,101623.47
2022-10-19T02:10:27.296Z,101622.69
2022-10-19T02:12:55.223Z,101612.13
2022-10-19T02:15:25.546Z,101609.97
2022-10-19T02:17:57.206Z,101614.63
2022-10-19T02:20:24.033Z,101603.69
2022-10-19T02:22:50.834Z,101600.75
2022-10-19T02:25:17.510Z,101603.88
2022-10-19T02:27:44.491Z,101607.16
2022-10-19T02:30:14.463Z,101613.78
2022-10-19T02:32:42.221Z,101609.50
2022-10-19T02:35:10.085Z,101602.38
2022-10-19T02:40:09.299Z,101599.44
2022-10-19T02:42:43.864Z,101597.47
2022-10-19T02:45:28.177Z,101594.03
2022-10-19T02:47:59.880Z,101602.84
2022-10-19T02:50:26.775Z,101592.69
2022-10-19T02:52:53.331Z,101592.22
2022-10-19T02:55:20.023Z,101592.63
2022-10-19T02:57:46.603Z,101590.97
2022-10-19T03:00:13.241Z,101582.50
2022-10-19T03:02:39.683Z,101585.41
2022-10-19T03:05:06.716Z,101582.44
2022-10-19T03:07:33.545Z,101576.34
2022-10-19T03:10:00.300Z,101578.72
2022-10-19T03:12:26.820Z,101582.84
2022-10-19T03:14:53.375Z,101581.16
2022-10-19T03:17:19.935Z,101575.78
2022-10-19T03:19:46.488Z,101572.56
2022-10-19T03:22:14.838Z,101579.34
2022-10-19T03:24:41.527Z,101571.03
2022-10-19T03:27:08.421Z,101573.72
2022-10-19T03:29:34.884Z,101567.22
2022-10-19T03:32:01.422Z,101570.31
2022-10-19T03:34:27.976Z,101568.47
2022-10-19T03:36:54.700Z,101564.41
2022-10-19T03:39:21.162Z,101567.47
2022-10-19T03:41:47.744Z,101571.53
2022-10-19T03:44:14.271Z,101565.25
2022-10-19T03:46:40.945Z,101566.19
2022-10-19T03:49:08.974Z,101565.22
2022-10-19T03:51:36.297Z,101562.09
2022-10-19T03:54:08.136Z,101564.81
2022-10-19T03:56:35.499Z,101575.91
2022-10-19T03:59:03.536Z,101571.25
2022-10-19T04:01:38.761Z,101574.91
2022-10-19T04:04:08.095Z,101575.00
2022-10-19T04:06:37.279Z,101570.13
2022-10-19T04:09:05.840Z,101578.47
2022-10-19T04:11:33.776Z,101576.38
2022-10-19T04:14:00.863Z,101576.59
2022-10-19T04:16:29.762Z,101580.03
2022-10-19T04:18:57.129Z,101586.13
2022-10-19T04:21:26.735Z,101581.03
2022-10-19T04:23:58.063Z,101576.81
2022-10-19T04:26:24.660Z,101577.09
2022-10-19T04:28:51.319Z,101578.56
2022-10-19T04:31:17.883Z,101582.44
2022-10-19T04:36:16.214Z,101579.47
2022-10-19T04:38:42.796Z,101581.00
2022-10-19T04:41:12.274Z,101581.00
2022-10-19T04:43:39.372Z,101581.69
2022-10-19T04:46:10.989Z,101585.44
2022-10-19T04:48:38.696Z,101581.47
2022-10-19T04:51:05.766Z,101579.47
2022-10-19T04:53:33.106Z,101583.44
2022-10-19T04:55:59.831Z,101595.44
2022-10-19T04:58:27.270Z,101588.56
2022-10-19T05:00:53.898Z,101584.53
2022-10-19T05:03:20.551Z,101577.59
2022-10-19T05:05:47.116Z,101579.38
2022-10-19T05:08:15.518Z,101576.06
2022-10-19T05:10:46.956Z,101581.03
2022-10-19T05:13:14.526Z,101584.84
2022-10-19T05:15:41.025Z,101578.69
2022-10-19T05:18:08.078Z,101580.56
2022-10-19T05:20:34.558Z,101588.13
2022-10-19T05:23:06.149Z,101586.81
2022-10-19T05:25:33.816Z,101587.00
2022-10-19T05:28:00.324Z,101585.50
2022-10-19T05:30:26.792Z,101587.69
2022-10-19T05:32:53.310Z,101584.66
2022-10-19T05:35:22.420Z,101585.22
2022-10-19T05:37:53.530Z,101581.94
2022-10-19T05:40:19.996Z,101581.13
2022-10-19T05:42:46.528Z,101582.91
2022-10-19T05:45:13.076Z,101591.75
2022-10-19T05:47:39.808Z,101570.81
2022-10-19T05:50:06.635Z,101581.03
2022-10-19T05:52:33.085Z,101583.09
2022-10-19T05:54:59.591Z,101582.59
2022-10-19T05:57:26.177Z,101587.47
2022-10-19T05:59:52.823Z,101582.38
2022-10-19T06:02:19.308Z,101579.97
2022-10-19T06:04:45.798Z,101585.22
2022-10-19T06:07:12.332Z,101582.38
2022-10-19T06:09:38.845Z,101596.41
2022-10-19T06:12:05.423Z,101589.19
2022-10-19T06:14:31.954Z,101583.06
2022-10-19T06:16:58.711Z,101589.34
2022-10-19T06:19:25.410Z,101579.03
2022-10-19T06:21:51.914Z,101584.41
2022-10-19T06:24:18.576Z,101581.66
2022-10-19T06:26:45.364Z,101579.88
2022-10-19T06:29:30.549Z,101584.88
2022-10-19T06:31:59.673Z,101588.88
2022-10-19T06:34:26.420Z,101593.88
2022-10-19T06:36:52.958Z,101592.06
2022-10-19T06:39:19.481Z,101591.78
2022-10-19T06:41:46.121Z,101604.56
2022-10-19T06:44:12.715Z,101600.97
2022-10-19T06:46:39.222Z,101598.53
2022-10-19T06:49:05.705Z,101609.19
2022-10-19T06:51:34.112Z,101608.31
2022-10-19T06:54:00.807Z,101608.06
2022-10-19T06:56:27.434Z,101607.47
2022-10-19T06:58:56.238Z,101613.25
2022-10-19T07:01:23.204Z,101613.34
2022-10-19T07:03:53.594Z,101614.97
2022-10-19T07:06:20.414Z,101612.78
2022-10-19T07:08:47.294Z,101605.22
2022-10-19T07:11:22.532Z,101616.03
2022-10-19T07:13:49.625Z,101618.13
2022-10-19T07:16:21.086Z,101617.00
2022-10-19T07:18:49.993Z,101619.09
2022-10-19T07:21:17.051Z,101616.69
2022-10-19T07:23:45.416Z,101615.47
2022-10-19T07:26:17.768Z,101621.41
2022-10-19T07:28:46.769Z,101622.88
2022-10-19T07:31:17.873Z,101624.09
2022-10-19T07:33:44.752Z,101631.75
2022-10-19T07:36:13.267Z,101627.16
2022-10-19T07:38:40.568Z,101626.25
2022-10-19T07:41:10.165Z,101632.59
2022-10-19T07:43:36.836Z,101630.44
2022-10-19T07:46:09.405Z,101627.06
2022-10-19T07:48:36.051Z,101628.09
2022-10-19T07:51:05.478Z,101630.06
2022-10-19T07:53:32.969Z,101632.91
2022-10-19T07:56:06.327Z,101635.59
2022-10-19T07:58:34.272Z,101646.47
2022-10-19T08:01:08.058Z,101651.22
2022-10-19T08:06:22.466Z,101649.47
2022-10-19T08:08:49.162Z,101654.69
2022-10-19T08:11:19.409Z,101650.25
2022-10-19T08:13:57.091Z,101651.69
2022-10-19T08:16:29.494Z,101648.88
2022-10-19T08:18:58.828Z,101656.03
2022-10-19T08:21:26.686Z,101646.03
2022-10-19T08:23:53.546Z,101652.66
2022-10-19T08:26:20.665Z,101648.03
2022-10-19T08:28:47.526Z,101648.13
2022-10-19T08:31:17.538Z,101633.41
2022-10-19T08:33:44.670Z,101634.09
2022-10-19T08:36:13.410Z,101627.53
2022-10-19T08:38:43.460Z,101630.16
2022-10-19T08:41:37.715Z,101619.84
2022-10-19T08:44:09.354Z,101619.44
2022-10-19T08:46:51.354Z,101610.78
2022-10-19T08:49:21.331Z,101607.47
2022-10-19T08:51:54.502Z,101606.38
2022-10-19T08:54:21.532Z,101614.53
2022-10-19T08:57:05.243Z,101610.75
2022-10-19T08:59:48.168Z,101602.28
2022-10-19T09:02:41.755Z,101615.69
2022-10-19T09:05:44.849Z,101611.00
2022-10-19T09:08:17.428Z,101602.34
2022-10-19T09:10:47.749Z,101617.66
2022-10-19T09:13:47.093Z,101604.38
2022-10-19T09:16:21.243Z,101608.84
2022-10-19T09:18:49.350Z,101607.38
2022-10-19T09:21:31.108Z,101613.22
2022-10-19T09:24:32.477Z,101612.38
2022-10-19T09:27:01.038Z,101610.81
2022-10-19T09:29:44.764Z,101605.94
2022-10-19T09:32:15.568Z,101607.31
2022-10-19T09:34:47.259Z,101604.94
2022-10-19T09:37:24.869Z,101599.91
2022-10-19T09:39:55.034Z,101593.28
2022-10-19T09:42:29.410Z,101592.28
2022-10-19T09:44:59.061Z,101594.09
2022-10-19T09:47:33.913Z,101588.81
2022-10-19T09:50:20.812Z,101602.56
2022-10-19T09:52:56.861Z,101612.50
2022-10-19T09:55:43.980Z,101612.13
2022-10-19T09:58:13.540Z,101611.72
2022-10-19T10:00:44.972Z,101607.25
2022-10-19T10:03:40.247Z,101599.88
2022-10-19T10:06:13.536Z,101604.81
2022-10-19T10:09:00.336Z,101593.94
2022-10-19T10:11:33.725Z,101596.44
2022-10-19T10:14:12.251Z,101600.19
2022-10-19T10:16:38.817Z,101594.75
2022-10-19T10:19:13.095Z,101598.94
2022-10-19T10:21:50.922Z,101597.19
2022-10-19T10:24:19.389Z,101598.31
2022-10-19T10:26:48.417Z,101598.00
2022-10-19T10:29:29.368Z,101594.47
2022-10-19T10:32:00.112Z,101594.78
2022-10-19T10:34:49.354Z,101590.06
2022-10-19T10:37:29.984Z,101584.94
2022-10-19T10:40:01.792Z,101584.47
2022-10-19T10:42:35.082Z,101583.19
2022-10-19T10:45:03.324Z,101575.41
2022-10-19T10:47:33.611Z,101569.47
2022-10-19T10:50:05.833Z,101563.25
2022-10-19T10:52:33.483Z,101566.38
2022-10-19T10:55:14.543Z,101562.56
2022-10-19T10:57:46.105Z,101563.59
2022-10-19T11:00:30.677Z,101558.72
2022-10-19T11:03:25.042Z,101550.47
2022-10-19T11:05:57.305Z,101550.50
2022-10-19T11:08:31.441Z,101548.22
2022-10-19T11:11:10.951Z,101545.63
2022-10-19T11:13:56.124Z,101543.28
2022-10-19T11:16:35.714Z,101539.81
2022-10-19T11:21:55.296Z,101537.09
2022-10-19T11:24:33.070Z,101531.97
2022-10-19T11:27:12.561Z,101531.34
2022-10-19T11:29:50.064Z,101524.38
2022-10-19T11:32:55.737Z,101519.03
2022-10-19T11:35:54.072Z,101507.31
2022-10-19T11:38:50.683Z,101506.28
2022-10-19T11:41:31.867Z,101504.25
2022-10-19T11:44:20.243Z,101499.22
2022-10-19T11:47:15.014Z,101496.69
2022-10-19T11:50:05.756Z,101495.09
2022-10-19T11:52:46.173Z,101493.19
2022-10-19T11:55:22.073Z,101484.63
2022-10-19T11:57:56.418Z,101481.91
2022-10-19T12:00:39.623Z,101481.69
2022-10-19T12:03:43.836Z,101472.31
2022-10-19T12:06:31.669Z,101464.94
2022-10-19T12:08:58.241Z,101463.22
2022-10-19T12:12:03.088Z,101464.31
2022-10-19T12:14:38.330Z,101458.25
2022-10-19T12:19:44.653Z,101463.75
2022-10-19T12:22:19.223Z,101458.00
2022-10-19T12:24:46.489Z,101446.38
2022-10-19T12:27:16.214Z,101452.47
2022-10-19T12:29:47.759Z,101444.31
2022-10-19T12:32:21.683Z,101446.78
2022-10-19T12:35:04.503Z,101448.75
2022-10-19T12:37:47.411Z,101437.53
2022-10-19T12:40:26.376Z,101439.75
2022-10-19T12:43:14.995Z,101437.84
2022-10-19T12:45:46.897Z,101434.88
2022-10-19T12:48:14.361Z,101425.94
2022-10-19T12:50:50.341Z,101423.56
2022-10-19T12:53:38.985Z,101409.41
2022-10-19T12:56:14.219Z,101418.31
2022-10-19T13:01:33.104Z,101423.84
2022-10-19T13:04:12.329Z,101411.81
2022-10-19T13:06:46.925Z,101407.03
2022-10-19T13:09:25.018Z,101414.94
2022-10-19T13:12:17.768Z,101405.31
2022-10-19T13:14:53.236Z,101399.75
2022-10-19T13:17:36.455Z,101395.44
2022-10-19T13:20:15.056Z,101394.09
2022-10-19T13:22:46.610Z,101394.78
2022-10-19T13:25:18.870Z,101385.66
2022-10-19T13:27:49.987Z,101379.91
2022-10-19T13:30:35.375Z,101378.56
2022-10-19T13:33:30.241Z,101375.63
2022-10-19T13:35:59.504Z,101369.91
2022-10-19T13:38:29.868Z,101366.09
2022-10-19T13:41:16.984Z,101363.22
2022-10-19T13:43:43.417Z,101364.78
2022-10-19T13:46:18.491Z,101362.97
2022-10-19T13:49:09.530Z,101350.28
2022-10-19T13:51:51.535Z,101356.94
2022-10-19T13:54:52.371Z,101344.13
2022-10-19T13:57:30.833Z,101341.19
2022-10-19T14:00:03.709Z,101345.72
2022-10-19T14:02:39.426Z,101349.50
2022-10-19T14:05:22.505Z,101347.94
2022-10-19T14:08:38.341Z,101348.63
2022-10-19T14:11:13.548Z,101343.28
2022-10-19T14:13:40.174Z,101335.91
2022-10-19T14:16:07.092Z,101338.59
2022-10-19T14:18:35.816Z,101338.66
2022-10-19T14:21:03.999Z,101350.59
2022-10-19T14:23:36.655Z,101338.75
2022-10-19T14:26:14.370Z,101329.44
2022-10-19T14:28:41.444Z,101326.06
2022-10-19T14:31:10.674Z,101337.88
2022-10-19T14:33:47.431Z,101330.94
2022-10-19T14:36:17.672Z,101331.81
2022-10-19T14:38:44.852Z,101327.97
2022-10-19T14:41:30.400Z,101323.84
2022-10-19T14:43:58.693Z,101326.63
2022-10-19T14:46:28.772Z,101323.59
2022-10-19T14:49:02.711Z,101325.50
2022-10-19T14:51:48.254Z,101326.13
2022-10-19T14:54:28.989Z,101321.72
2022-10-19T14:57:02.298Z,101327.34
2022-10-19T14:59:31.022Z,101327.34
2022-10-19T15:02:00.026Z,101330.75
2022-10-19T15:04:31.854Z,101327.41
2022-10-19T15:07:01.597Z,101319.44
2022-10-19T15:09:43.712Z,101327.97
2022-10-19T15:12:17.860Z,101318.16
2022-10-19T15:14:45.935Z,101328.97
2022-10-19T15:17:30.602Z,101329.75
2022-10-19T15:20:01.275Z,101326.75
2022-10-19T15:22:31.151Z,101325.75
2022-10-19T15:25:06.542Z,101327.97
2022-10-19T15:27:39.520Z,101317.84
2022-10-19T15:30:17.879Z,101308.63
2022-10-19T15:32:46.775Z,101314.59
2022-10-19T15:35:21.314Z,101293.50
2022-10-19T15:37:50.054Z,101298.41
2022-10-19T15:40:25.613Z,101306.41
2022-10-19T15:42:52.341Z,101297.06
2022-10-19T15:45:31.230Z,101303.00
2022-10-19T15:48:36.873Z,101300.03
2022-10-19T15:51:03.407Z,101298.47
2022-10-19T15:53:29.899Z,101294.84
2022-10-19T15:55:58.211Z,101287.03
2022-10-19T15:58:25.137Z,101288.44
2022-10-19T16:00:51.745Z,101288.56
2022-10-19T16:03:18.293Z,101290.69
2022-10-19T16:05:45.023Z,101286.19
2022-10-19T16:08:12.584Z,101288.56
2022-10-19T16:10:39.233Z,101281.06
2022-10-19T16:13:05.780Z,101282.34
2022-10-19T16:15:32.444Z,101280.03
2022-10-19T16:18:00.023Z,101273.25
2022-10-19T16:20:28.734Z,101266.63
2022-10-19T16:22:55.906Z,101260.59
2022-10-19T16:25:22.434Z,101272.75
2022-10-19T16:27:48.945Z,101269.41
2022-10-19T16:30:15.530Z,101254.09
2022-10-19T16:35:13.491Z,101269.34
2022-10-19T16:37:39.966Z,101270.41
2022-10-19T16:40:07.113Z,101274.22
2022-10-19T16:42:34.780Z,101271.28
2022-10-19T16:45:01.501Z,101268.47
2022-10-19T16:47:27.962Z,101267.38
2022-10-19T16:49:59.043Z,101262.53
2022-10-19T16:52:33.215Z,101264.50
2022-10-19T16:55:00.238Z,101261.13
2022-10-19T16:57:26.792Z,101265.78
2022-10-19T17:02:25.572Z,101252.66
2022-10-19T17:04:52.166Z,101261.94
2022-10-19T17:07:19.076Z,101265.16
2022-10-19T17:09:45.750Z,101261.22
2022-10-19T17:12:13.257Z,101253.19
2022-10-19T17:14:41.900Z,101250.09
2022-10-19T17:17:10.351Z,101242.97
2022-10-19T17:19:37.810Z,101252.91
2022-10-19T17:22:05.489Z,101249.19
2022-10-19T17:24:32.336Z,101254.56
2022-10-19T17:27:02.839Z,101255.63
2022-10-19T17:29:29.498Z,101254.22
2022-10-19T17:31:55.978Z,101252.28
2022-10-19T17:34:22.492Z,101254.84
2022-10-19T17:36:49.121Z,101259.88
2022-10-19T17:39:19.801Z,101253.28
2022-10-19T17:41:47.998Z,101257.00
2022-10-19T17:44:15.397Z,101259.94
2022-10-19T17:46:42.650Z,101253.56
2022-10-19T17:49:10.173Z,101254.03
2022-10-19T17:51:37.990Z,101254.03
2022-10-19T17:54:10.850Z,101250.56
2022-10-19T17:56:39.918Z,101246.81
2022-10-19T17:59:08.828Z,101247.09
2022-10-19T18:01:36.298Z,101245.63
2022-10-19T18:04:03.032Z,101249.16
2022-10-19T18:06:31.917Z,101259.66
2022-10-19T18:08:59.918Z,101252.50
2022-10-19T18:11:31.598Z,101257.09
2022-10-19T18:14:00.555Z,101261.16
2022-10-19T18:16:33.296Z,101249.63
2022-10-19T18:19:01.297Z,101249.00
2022-10-19T18:21:35.184Z,101258.03
2022-10-19T18:24:03.101Z,101245.16
2022-10-19T18:26:32.167Z,101243.88
2022-10-19T18:29:00.154Z,101246.22
2022-10-19T18:31:31.475Z,101245.81
2022-10-19T18:34:03.117Z,101241.81
2022-10-19T18:36:30.815Z,101244.28
2022-10-19T18:39:00.215Z,101233.06
2022-10-19T18:41:27.143Z,101231.66
2022-10-19T18:44:03.115Z,101227.97
2022-10-19T18:46:29.864Z,101227.06
2022-10-19T18:48:56.422Z,101226.69
2022-10-19T18:51:24.038Z,101217.59
2022-10-19T18:53:50.887Z,101211.31
2022-10-19T18:56:19.823Z,101215.25
2022-10-19T18:58:47.214Z,101209.59
2022-10-19T19:01:24.312Z,101207.38
2022-10-19T19:03:53.267Z,101200.00
2022-10-19T19:06:22.833Z,101192.13
2022-10-19T19:08:49.529Z,101199.97
2022-10-19T19:11:19.076Z,101193.38
2022-10-19T19:13:51.383Z,101190.56
2022-10-19T19:16:18.608Z,101195.28
2022-10-19T19:18:45.203Z,101191.31
2022-10-19T19:21:17.479Z,101194.00
2022-10-19T19:23:44.656Z,101186.41
2022-10-19T19:26:12.875Z,101183.72
2022-10-19T19:28:41.812Z,101186.00
2022-10-19T19:31:11.438Z,101187.06
2022-10-19T19:33:38.747Z,101190.03
2022-10-19T19:36:07.125Z,101193.56
2022-10-19T19:38:34.312Z,101190.72
2022-10-19T19:41:03.724Z,101196.56
2022-10-19T19:43:31.781Z,101190.59
2022-10-19T19:46:03.297Z,101189.69
2022-10-19T19:48:32.818Z,101179.75
2022-10-19T19:50:59.372Z,101179.84
2022-10-19T19:53:26.673Z,101185.16
2022-10-19T19:55:53.962Z,101185.28
2022-10-19T19:58:20.482Z,101186.41
2022-10-19T20:00:47.048Z,101193.19
2022-10-19T20:03:13.693Z,101193.53
2022-10-19T20:05:40.730Z,101199.34
2022-10-19T20:08:08.188Z,101191.25
2022-10-19T20:10:39.843Z,101191.53
2022-10-19T20:13:06.415Z,101187.56
2022-10-19T20:15:33.242Z,101185.91
2022-10-19T20:17:59.780Z,101188.25
2022-10-19T20:20:26.543Z,101179.34
2022-10-19T20:22:53.129Z,101188.44
2022-10-19T20:25:19.680Z,101187.81
2022-10-19T20:27:46.258Z,101195.53
2022-10-19T20:30:12.898Z,101198.06
2022-10-19T20:32:39.459Z,101200.16
2022-10-19T20:35:07.394Z,101188.19
2022-10-19T20:37:33.972Z,101173.56
2022-10-19T20:40:01.543Z,101182.00
2022-10-19T20:42:29.909Z,101180.59
2022-10-19T20:44:56.535Z,101176.38
2022-10-19T20:47:24.209Z,101166.00
2022-10-19T20:49:50.942Z,101169.00
2022-10-19T20:52:17.464Z,101166.97
2022-10-19T20:54:44.008Z,101173.00
2022-10-19T20:57:10.541Z,101162.91
2022-10-19T20:59:38.663Z,101167.34
2022-10-19T21:02:05.241Z,101166.50
2022-10-19T21:04:31.771Z,101169.00
2022-10-19T21:06:58.394Z,101173.00
2022-10-19T21:09:25.907Z,101179.94
2022-10-19T21:11:52.721Z,101170.94
2022-10-19T21:14:25.454Z,101160.75
2022-10-19T21:16:58.460Z,101167.66
2022-10-19T21:19:27.921Z,101159.16
2022-10-19T21:21:57.930Z,101165.81
2022-10-19T21:24:27.377Z,101161.31
2022-10-19T21:26:54.215Z,101157.84
2022-10-19T21:29:21.230Z,101153.53
2022-10-19T21:31:51.767Z,101153.50
2022-10-19T21:34:21.574Z,101150.16
2022-10-19T21:36:48.523Z,101149.09
2022-10-19T21:39:15.556Z,101154.00
2022-10-19T21:41:42.036Z,101145.81
2022-10-19T21:44:08.768Z,101159.16
2022-10-19T21:46:35.341Z,101153.50
2022-10-19T21:49:01.957Z,101153.34
2022-10-19T21:51:37.538Z,101147.84
2022-10-19T21:54:07.169Z,101145.50
2022-10-19T21:56:34.442Z,101152.91
2022-10-19T21:59:00.942Z,101147.97
2022-10-19T22:01:29.767Z,101154.19
2022-10-19T22:03:58.209Z,101152.28
2022-10-19T22:06:27.599Z,101145.94
2022-10-19T22:08:55.030Z,101143.91
2022-10-19T22:11:22.233Z,101141.47
2022-10-19T22:13:49.036Z,101136.88
2022-10-19T22:16:18.767Z,101133.13
2022-10-19T22:18:46.322Z,101124.03
2022-10-19T22:21:15.454Z,101121.25
2022-10-19T22:23:42.968Z,101121.41
2022-10-19T22:26:17.428Z,101121.19
2022-10-19T22:28:44.267Z,101124.53
2022-10-19T22:31:12.013Z,101121.13
2022-10-19T22:33:39.210Z,101119.03
2022-10-19T22:36:08.501Z,101129.81
2022-10-19T22:38:35.821Z,101117.47
2022-10-19T22:41:02.289Z,101118.91
2022-10-19T22:43:28.740Z,101110.03
2022-10-19T22:45:55.233Z,101109.34
2022-10-19T22:48:21.738Z,101111.56
2022-10-19T22:50:48.449Z,101118.84
2022-10-19T22:53:14.970Z,101120.72
2022-10-19T22:55:41.515Z,101110.13
2022-10-19T22:58:08.589Z,101112.34
2022-10-19T23:00:35.399Z,101112.69
2022-10-19T23:03:01.879Z,101101.09
2022-10-19T23:05:28.360Z,101102.88
2022-10-19T23:07:54.851Z,101106.81
2022-10-19T23:10:21.351Z,101101.06
2022-10-19T23:12:51.835Z,101109.34
2022-10-19T23:15:19.495Z,101103.50
2022-10-19T23:17:46.036Z,101096.66
2022-10-19T23:20:13.038Z,101096.75
2022-10-19T23:22:40.203Z,101096.75
2022-10-19T23:25:07.463Z,101087.47
2022-10-19T23:27:34.527Z,101090.69
2022-10-19T23:30:01.882Z,101073.88
2022-10-19T23:32:28.344Z,101075.19
2022-10-19T23:34:54.895Z,101067.34
2022-10-19T23:37:21.410Z,101067.19
2022-10-19T23:39:47.864Z,101067.91
2022-10-19T23:42:14.303Z,101065.13
2022-10-19T23:44:40.789Z,101058.19
2022-10-19T23:47:07.317Z,101057.19
2022-10-19T23:49:33.846Z,101053.75
2022-10-19T23:52:00.322Z,101054.59
2022-10-19T23:54:26.798Z,101050.78
2022-10-19T23:56:53.299Z,101049.00
2022-10-19T23:59:19.949Z,101047.75
